createdAt,value
2023-03-15T00:01:27.072Z,95770.53
2023-03-15T00:03:57.049Z,95769.78
2023-03-15T00:06:24.216Z,95772.38
2023-03-15T00:08:52.077Z,95779.44
2023-03-15T00:11:19.528Z,95779.25
2023-03-15T00:13:46.725Z,95784.00
2023-03-15T00:16:17.551Z,95785.47
2023-03-15T00:18:47.997Z,95787.66
2023-03-15T00:21:15.456Z,95783.94
2023-03-15T00:23:42.510Z,95791.88
2023-03-15T00:26:09.314Z,95785.47
2023-03-15T00:28:36.253Z,95775.94
2023-03-15T00:31:05.975Z,95787.47
2023-03-15T00:33:34.855Z,95776.25
2023-03-15T00:36:07.546Z,95774.47
2023-03-15T00:38:36.484Z,95774.53
2023-03-15T00:41:08.938Z,95771.84
2023-03-15T00:43:36.359Z,95768.06
2023-03-15T00:46:04.289Z,95774.03
2023-03-15T00:48:31.778Z,95778.00
2023-03-15T00:51:18.524Z,95770.19
2023-03-15T00:53:47.847Z,95779.41
2023-03-15T00:56:18.772Z,95789.03
2023-03-15T00:58:46.129Z,95793.25
2023-03-15T01:01:21.007Z,95808.31
2023-03-15T01:03:48.359Z,95803.00
2023-03-15T01:06:19.572Z,95811.38
2023-03-15T01:08:46.903Z,95808.56
2023-03-15T01:11:21.327Z,95797.03
2023-03-15T01:13:48.163Z,95793.06
2023-03-15T01:16:15.570Z,95803.16
2023-03-15T01:18:42.933Z,95803.00
2023-03-15T01:21:12.862Z,95797.13
2023-03-15T01:23:40.499Z,95795.13
2023-03-15T01:26:11.946Z,95805.88
2023-03-15T01:28:38.897Z,95803.22
2023-03-15T01:31:05.864Z,95804.84
2023-03-15T01:33:33.030Z,95797.03
2023-03-15T01:36:07.701Z,95791.44
2023-03-15T01:38:35.012Z,95796.16
2023-03-15T01:41:02.178Z,95794.38
2023-03-15T01:43:31.922Z,95800.06
2023-03-15T01:46:20.293Z,95807.56
2023-03-15T01:48:58.658Z,95801.38
2023-03-15T01:51:46.158Z,95805.59
2023-03-15T01:54:27.205Z,95803.38
2023-03-15T01:57:09.295Z,95805.13
2023-03-15T01:59:44.344Z,95818.34
2023-03-15T02:02:15.287Z,95811.25
2023-03-15T02:04:48.927Z,95817.00
2023-03-15T02:07:18.671Z,95823.31
2023-03-15T02:10:07.524Z,95827.91
2023-03-15T02:12:42.837Z,95830.94
2023-03-15T02:15:11.521Z,95828.28
2023-03-15T02:17:42.287Z,95839.22
2023-03-15T02:20:48.588Z,95840.50
2023-03-15T02:23:19.728Z,95834.53
2023-03-15T02:25:59.083Z,95842.16
2023-03-15T02:28:26.831Z,95850.38
2023-03-15T02:30:53.718Z,95861.31
2023-03-15T02:33:32.785Z,95866.59
2023-03-15T02:36:24.451Z,95877.03
2023-03-15T02:38:52.614Z,95894.25
2023-03-15T02:41:36.851Z,95895.47
2023-03-15T02:44:14.222Z,95906.25
2023-03-15T02:46:42.969Z,95918.94
2023-03-15T02:49:11.865Z,95926.97
2023-03-15T02:51:38.764Z,95940.84
2023-03-15T02:54:05.898Z,95942.25
2023-03-15T02:56:33.686Z,95948.03
2023-03-15T02:59:00.955Z,95958.84
2023-03-15T03:01:27.962Z,95956.81
2023-03-15T03:03:54.799Z,95973.56
2023-03-15T03:06:21.677Z,95986.94
2023-03-15T03:08:48.662Z,95989.97
2023-03-15T03:11:16.223Z,96004.69
2023-03-15T03:13:43.611Z,95994.75
2023-03-15T03:16:11.059Z,96005.75
2023-03-15T03:18:38.390Z,96014.31
2023-03-15T03:21:07.740Z,96017.78
2023-03-15T03:23:35.993Z,96037.00
2023-03-15T03:26:04.164Z,96046.09
2023-03-15T03:28:32.304Z,96050.25
2023-03-15T03:30:59.367Z,96062.88
2023-03-15T03:33:26.263Z,96071.56
2023-03-15T03:35:54.223Z,96082.91
2023-03-15T03:38:21.097Z,96087.28
2023-03-15T03:40:48.052Z,96091.25
2023-03-15T03:43:14.899Z,96099.66
2023-03-15T03:45:41.671Z,96111.03
2023-03-15T03:48:09.028Z,96104.16
2023-03-15T03:50:35.907Z,96122.69
2023-03-15T03:53:02.813Z,96121.47
2023-03-15T03:55:29.603Z,96125.72
2023-03-15T03:57:56.434Z,96131.78
2023-03-15T04:00:23.625Z,96134.53
2023-03-15T04:02:54.129Z,96150.13
2023-03-15T04:05:21.499Z,96157.75
2023-03-15T04:07:48.379Z,96156.53
2023-03-15T04:10:15.431Z,96167.88
2023-03-15T04:12:44.057Z,96180.69
2023-03-15T04:15:11.904Z,96182.66
2023-03-15T04:17:39.367Z,96200.53
2023-03-15T04:20:09.061Z,96204.50
2023-03-15T04:22:35.975Z,96204.63
2023-03-15T04:25:03.018Z,96213.63
2023-03-15T04:27:30.512Z,96222.34
2023-03-15T04:29:57.291Z,96223.69
2023-03-15T04:32:24.314Z,96231.19
2023-03-15T04:34:51.504Z,96244.66
2023-03-15T04:37:19.221Z,96245.16
2023-03-15T04:39:46.045Z,96258.84
2023-03-15T04:42:12.867Z,96262.25
2023-03-15T04:44:39.688Z,96272.28
2023-03-15T04:47:07.015Z,96275.91
2023-03-15T04:49:34.066Z,96288.09
2023-03-15T04:52:01.357Z,96289.56
2023-03-15T04:54:28.357Z,96284.19
2023-03-15T04:56:55.180Z,96299.19
2023-03-15T04:59:22.054Z,96299.50
2023-03-15T05:01:49.076Z,96299.34
2023-03-15T05:04:16.420Z,96301.16
2023-03-15T05:06:43.310Z,96306.69
2023-03-15T05:09:19.238Z,96317.09
2023-03-15T05:11:46.703Z,96319.69
2023-03-15T05:14:14.105Z,96315.47
2023-03-15T05:16:41.103Z,96319.03
2023-03-15T05:19:08.334Z,96326.72
2023-03-15T05:21:35.215Z,96331.41
2023-03-15T05:24:02.124Z,96343.47
2023-03-15T05:26:28.964Z,96337.94
2023-03-15T05:28:55.797Z,96346.38
2023-03-15T05:31:22.670Z,96362.38
2023-03-15T05:33:49.645Z,96367.88
2023-03-15T05:36:17.443Z,96366.44
2023-03-15T05:38:45.704Z,96380.28
2023-03-15T05:41:18.063Z,96382.22
2023-03-15T05:43:45.209Z,96392.66
2023-03-15T05:46:12.101Z,96400.28
2023-03-15T05:48:39.138Z,96391.66
2023-03-15T05:51:05.988Z,96408.63
2023-03-15T05:53:32.947Z,96407.59
2023-03-15T05:55:59.743Z,96424.56
2023-03-15T05:58:26.665Z,96421.63
2023-03-15T06:00:53.627Z,96425.53
2023-03-15T06:03:20.551Z,96426.88
2023-03-15T06:05:47.343Z,96431.09
2023-03-15T06:08:14.265Z,96435.66
2023-03-15T06:10:41.203Z,96444.78
2023-03-15T06:13:08.076Z,96445.75
2023-03-15T06:15:34.976Z,96459.09
2023-03-15T06:18:01.825Z,96466.75
2023-03-15T06:20:28.702Z,96459.78
2023-03-15T06:22:55.541Z,96461.72
2023-03-15T06:25:22.377Z,96458.16
2023-03-15T06:27:49.272Z,96464.00
2023-03-15T06:30:17.204Z,96463.69
2023-03-15T06:32:44.240Z,96473.63
2023-03-15T06:35:11.157Z,96484.84
2023-03-15T06:37:38.153Z,96477.97
2023-03-15T06:40:08.773Z,96476.06
2023-03-15T06:42:36.426Z,96483.91
2023-03-15T06:45:04.088Z,96481.88
2023-03-15T06:47:30.943Z,96485.75
2023-03-15T06:49:57.882Z,96493.34
2023-03-15T06:52:24.862Z,96494.03
2023-03-15T06:54:51.684Z,96495.16
2023-03-15T06:57:18.525Z,96496.75
2023-03-15T06:59:45.315Z,96505.66
2023-03-15T07:02:18.537Z,96491.19
2023-03-15T07:04:45.531Z,96496.69
2023-03-15T07:07:13.681Z,96493.41
2023-03-15T07:09:41.067Z,96493.03
2023-03-15T07:12:10.044Z,96495.13
2023-03-15T07:14:37.593Z,96496.41
2023-03-15T07:17:04.685Z,96492.72
2023-03-15T07:19:31.546Z,96504.25
2023-03-15T07:21:58.332Z,96503.84
2023-03-15T07:24:25.232Z,96509.63
2023-03-15T07:26:56.191Z,96506.81
2023-03-15T07:29:24.547Z,96514.63
2023-03-15T07:31:51.913Z,96523.53
2023-03-15T07:34:18.889Z,96517.13
2023-03-15T07:36:45.764Z,96524.31
2023-03-15T07:39:12.936Z,96529.38
2023-03-15T07:41:39.852Z,96534.78
2023-03-15T07:44:06.799Z,96538.63
2023-03-15T07:46:34.099Z,96544.69
2023-03-15T07:49:00.919Z,96546.28
2023-03-15T07:51:27.811Z,96542.72
2023-03-15T07:53:54.697Z,96548.19
2023-03-15T07:56:21.622Z,96551.16
2023-03-15T07:58:48.457Z,96546.25
2023-03-15T08:01:15.416Z,96545.78
2023-03-15T08:03:42.251Z,96546.47
2023-03-15T08:06:09.201Z,96551.13
2023-03-15T08:08:36.013Z,96552.28
2023-03-15T08:11:05.060Z,96555.00
2023-03-15T08:13:32.065Z,96558.66
2023-03-15T08:15:58.897Z,96554.84
2023-03-15T08:18:28.893Z,96559.09
2023-03-15T08:20:56.506Z,96550.75
2023-03-15T08:23:23.815Z,96546.69
2023-03-15T08:25:50.641Z,96552.16
2023-03-15T08:28:17.841Z,96557.16
2023-03-15T08:30:44.636Z,96556.38
2023-03-15T08:33:12.565Z,96563.19
2023-03-15T08:35:39.617Z,96564.22
2023-03-15T08:38:06.420Z,96560.63
2023-03-15T08:40:33.481Z,96562.38
2023-03-15T08:43:00.342Z,96549.16
2023-03-15T08:45:27.728Z,96544.22
2023-03-15T08:47:57.001Z,96542.84
2023-03-15T08:50:24.186Z,96539.41
2023-03-15T08:52:51.077Z,96540.53
2023-03-15T08:55:18.117Z,96546.91
2023-03-15T08:57:44.982Z,96543.28
2023-03-15T09:00:22.887Z,96548.66
2023-03-15T09:02:52.123Z,96543.97
2023-03-15T09:05:20.401Z,96550.31
2023-03-15T09:07:48.127Z,96549.31
2023-03-15T09:10:17.494Z,96543.22
2023-03-15T09:12:47.921Z,96542.28
2023-03-15T09:15:15.530Z,96533.97
2023-03-15T09:17:42.864Z,96542.03
2023-03-15T09:20:16.884Z,96540.94
2023-03-15T09:22:50.633Z,96539.28
2023-03-15T09:25:18.142Z,96551.34
2023-03-15T09:27:44.937Z,96558.19
2023-03-15T09:30:12.512Z,96548.09
2023-03-15T09:32:39.600Z,96565.09
2023-03-15T09:35:09.942Z,96557.78
2023-03-15T09:37:36.742Z,96547.69
2023-03-15T09:40:04.748Z,96551.47
2023-03-15T09:42:51.946Z,96555.31
2023-03-15T09:45:48.807Z,96558.84
2023-03-15T09:48:29.061Z,96565.69
2023-03-15T09:51:16.304Z,96569.94
2023-03-15T09:53:59.108Z,96571.28
2023-03-15T09:56:36.841Z,96570.50
2023-03-15T09:59:05.701Z,96570.88
2023-03-15T10:01:40.856Z,96577.38
2023-03-15T10:04:26.029Z,96587.19
2023-03-15T10:06:57.466Z,96570.25
2023-03-15T10:09:29.524Z,96581.06
2023-03-15T10:12:12.452Z,96581.72
2023-03-15T10:15:23.134Z,96579.63
2023-03-15T10:17:58.906Z,96573.94
2023-03-15T10:20:30.043Z,96583.22
2023-03-15T10:23:12.725Z,96589.97
2023-03-15T10:25:41.059Z,96581.03
2023-03-15T10:28:31.229Z,96583.19
2023-03-15T10:31:10.541Z,96581.50
2023-03-15T10:33:39.514Z,96573.94
2023-03-15T10:36:17.646Z,96574.91
2023-03-15T10:38:46.154Z,96586.69
2023-03-15T10:41:29.202Z,96577.28
2023-03-15T10:44:04.702Z,96584.34
2023-03-15T10:46:31.815Z,96582.47
2023-03-15T10:49:11.963Z,96571.75
2023-03-15T10:51:46.528Z,96571.56
2023-03-15T10:54:21.158Z,96564.44
2023-03-15T10:56:55.575Z,96555.56
2023-03-15T10:59:26.004Z,96549.88
2023-03-15T11:02:12.804Z,96562.25
2023-03-15T11:04:47.795Z,96554.50
2023-03-15T11:07:14.656Z,96552.88
2023-03-15T11:09:55.310Z,96558.59
2023-03-15T11:12:24.207Z,96557.34
2023-03-15T11:14:57.888Z,96549.69
2023-03-15T11:17:29.869Z,96545.22
2023-03-15T11:20:10.045Z,96546.81
2023-03-15T11:22:36.855Z,96543.97
2023-03-15T11:25:04.349Z,96537.56
2023-03-15T11:27:31.772Z,96535.75
2023-03-15T11:30:01.853Z,96537.66
2023-03-15T11:32:32.014Z,96535.19
2023-03-15T11:35:07.116Z,96535.72
2023-03-15T11:37:50.133Z,96529.94
2023-03-15T11:40:22.369Z,96524.41
2023-03-15T11:43:03.854Z,96516.84
2023-03-15T11:45:53.481Z,96516.38
2023-03-15T11:48:33.843Z,96518.47
2023-03-15T11:51:01.846Z,96507.69
2023-03-15T11:53:42.330Z,96512.59
2023-03-15T11:56:26.632Z,96511.19
2023-03-15T11:59:13.131Z,96504.31
2023-03-15T12:01:52.037Z,96506.38
2023-03-15T12:04:29.601Z,96507.66
2023-03-15T12:06:58.290Z,96498.00
2023-03-15T12:09:36.239Z,96486.38
2023-03-15T12:12:27.370Z,96498.34
2023-03-15T12:15:36.015Z,96492.63
2023-03-15T12:18:06.919Z,96488.78
2023-03-15T12:20:45.009Z,96488.84
2023-03-15T12:23:17.591Z,96465.88
2023-03-15T12:26:06.009Z,96463.75
2023-03-15T12:29:02.127Z,96462.88
2023-03-15T12:31:58.469Z,96459.91
2023-03-15T12:34:46.720Z,96472.56
2023-03-15T12:37:54.583Z,96454.41
2023-03-15T12:40:26.505Z,96460.44
2023-03-15T12:42:57.384Z,96462.78
2023-03-15T12:45:38.578Z,96460.69
2023-03-15T12:48:12.812Z,96454.06
2023-03-15T12:50:45.849Z,96471.81
2023-03-15T12:53:24.103Z,96468.13
2023-03-15T12:55:59.479Z,96472.03
2023-03-15T12:58:36.282Z,96477.00
2023-03-15T13:01:06.365Z,96471.81
2023-03-15T13:03:35.773Z,96478.31
2023-03-15T13:06:28.751Z,96463.31
2023-03-15T13:09:38.961Z,96463.84
2023-03-15T13:12:37.263Z,96464.00
2023-03-15T13:15:21.767Z,96458.50
2023-03-15T13:18:04.520Z,96474.03
2023-03-15T13:20:59.607Z,96471.63
2023-03-15T13:23:29.541Z,96460.81
2023-03-15T13:26:26.476Z,96463.78
2023-03-15T13:29:15.039Z,96462.25
2023-03-15T13:31:42.577Z,96470.97
2023-03-15T13:34:24.148Z,96475.59
2023-03-15T13:36:57.875Z,96474.75
2023-03-15T13:39:34.606Z,96475.06
2023-03-15T13:42:06.442Z,96468.91
2023-03-15T13:44:33.989Z,96468.13
2023-03-15T13:47:01.328Z,96475.84
2023-03-15T13:49:33.403Z,96475.06
2023-03-15T13:52:11.985Z,96477.06
2023-03-15T13:54:40.251Z,96470.34
2023-03-15T13:57:15.535Z,96465.84
2023-03-15T13:59:47.821Z,96473.59
2023-03-15T14:02:26.809Z,96480.66
2023-03-15T14:05:00.553Z,96479.72
2023-03-15T14:07:40.205Z,96477.41
2023-03-15T14:10:38.183Z,96481.88
2023-03-15T14:13:26.730Z,96487.53
2023-03-15T14:16:06.660Z,96493.69
2023-03-15T14:18:39.530Z,96492.22
2023-03-15T14:21:15.905Z,96501.59
2023-03-15T14:23:47.473Z,96491.50
2023-03-15T14:26:27.174Z,96504.31
2023-03-15T14:29:07.559Z,96492.16
2023-03-15T14:31:47.153Z,96506.09
2023-03-15T14:34:35.595Z,96506.03
2023-03-15T14:37:10.050Z,96522.06
2023-03-15T14:39:42.560Z,96521.63
2023-03-15T14:42:12.596Z,96529.09
2023-03-15T14:44:39.461Z,96531.13
2023-03-15T14:47:16.368Z,96541.97
2023-03-15T14:49:43.259Z,96541.16
2023-03-15T14:52:13.713Z,96550.16
2023-03-15T14:54:46.982Z,96541.88
2023-03-15T14:57:13.774Z,96551.97
2023-03-15T14:59:40.636Z,96543.97
2023-03-15T15:02:15.683Z,96541.31
2023-03-15T15:04:43.886Z,96544.50
2023-03-15T15:07:13.814Z,96539.84
2023-03-15T15:09:47.901Z,96530.44
2023-03-15T15:12:14.838Z,96533.59
2023-03-15T15:14:42.832Z,96542.03
2023-03-15T15:17:10.058Z,96534.75
2023-03-15T15:19:37.216Z,96533.06
2023-03-15T15:22:04.124Z,96527.53
2023-03-15T15:24:31.438Z,96523.66
2023-03-15T15:26:58.344Z,96520.09
2023-03-15T15:29:25.295Z,96524.28
2023-03-15T15:31:52.309Z,96522.13
2023-03-15T15:34:19.283Z,96531.13
2023-03-15T15:36:46.519Z,96535.44
2023-03-15T15:39:27.460Z,96532.22
2023-03-15T15:41:54.366Z,96529.09
2023-03-15T15:44:26.763Z,96524.16
2023-03-15T15:46:53.896Z,96535.13
2023-03-15T15:49:21.141Z,96541.69
2023-03-15T15:51:49.718Z,96551.06
2023-03-15T15:54:20.379Z,96554.72
2023-03-15T15:56:54.178Z,96559.84
2023-03-15T15:59:21.165Z,96561.25
2023-03-15T16:02:06.582Z,96574.31
2023-03-15T16:04:33.471Z,96573.41
2023-03-15T16:07:02.516Z,96582.09
2023-03-15T16:09:36.009Z,96578.94
2023-03-15T16:12:09.721Z,96590.22
2023-03-15T16:14:36.531Z,96598.78
2023-03-15T16:17:05.412Z,96593.91
2023-03-15T16:19:32.341Z,96604.22
2023-03-15T16:21:59.289Z,96600.50
2023-03-15T16:24:35.371Z,96604.31
2023-03-15T16:27:06.199Z,96598.09
2023-03-15T16:29:38.245Z,96601.00
2023-03-15T16:32:17.547Z,96596.03
2023-03-15T16:34:52.223Z,96601.47
2023-03-15T16:37:26.438Z,96595.16
2023-03-15T16:39:57.564Z,96601.75
2023-03-15T16:42:25.688Z,96598.31
2023-03-15T16:44:53.770Z,96605.88
2023-03-15T16:47:21.146Z,96601.06
2023-03-15T16:49:48.121Z,96611.47
2023-03-15T16:52:16.572Z,96609.66
2023-03-15T16:54:47.594Z,96610.88
2023-03-15T16:57:21.859Z,96610.31
2023-03-15T16:59:49.988Z,96615.56
2023-03-15T17:02:28.685Z,96630.69
2023-03-15T17:04:55.565Z,96632.03
2023-03-15T17:07:29.992Z,96637.06
2023-03-15T17:09:57.050Z,96642.28
2023-03-15T17:12:27.035Z,96651.34
2023-03-15T17:14:56.906Z,96651.47
2023-03-15T17:17:26.742Z,96665.94
2023-03-15T17:19:54.164Z,96664.66
2023-03-15T17:22:21.721Z,96670.19
2023-03-15T17:24:49.269Z,96680.31
2023-03-15T17:27:26.506Z,96673.09
2023-03-15T17:29:53.281Z,96668.97
2023-03-15T17:32:20.210Z,96665.53
2023-03-15T17:34:47.534Z,96676.69
2023-03-15T17:37:18.643Z,96682.75
2023-03-15T17:39:47.688Z,96685.59
2023-03-15T17:42:15.487Z,96683.94
2023-03-15T17:44:42.600Z,96697.09
2023-03-15T17:47:12.895Z,96684.72
2023-03-15T17:49:39.804Z,96699.28
2023-03-15T17:52:15.370Z,96695.31
2023-03-15T17:54:42.326Z,96692.53
2023-03-15T17:57:14.177Z,96699.66
2023-03-15T17:59:41.011Z,96695.78
2023-03-15T18:02:17.447Z,96694.81
2023-03-15T18:04:44.266Z,96708.28
2023-03-15T18:07:11.098Z,96708.13
2023-03-15T18:09:37.946Z,96717.78
2023-03-15T18:12:04.995Z,96713.50
2023-03-15T18:14:37.040Z,96712.84
2023-03-15T18:17:04.317Z,96723.00
2023-03-15T18:19:31.227Z,96723.31
2023-03-15T18:21:58.139Z,96729.88
2023-03-15T18:24:24.973Z,96730.34
2023-03-15T18:26:52.996Z,96738.19
2023-03-15T18:29:19.997Z,96733.47
2023-03-15T18:31:46.881Z,96738.69
2023-03-15T18:34:16.474Z,96740.78
2023-03-15T18:36:43.407Z,96736.69
2023-03-15T18:39:10.365Z,96739.50
2023-03-15T18:41:37.328Z,96744.06
2023-03-15T18:44:04.219Z,96749.09
2023-03-15T18:46:31.957Z,96743.56
2023-03-15T18:48:59.216Z,96738.34
2023-03-15T18:51:28.041Z,96745.56
2023-03-15T18:53:56.075Z,96755.81
2023-03-15T18:56:26.271Z,96749.75
2023-03-15T18:58:54.638Z,96762.88
2023-03-15T19:01:23.802Z,96747.50
2023-03-15T19:03:52.644Z,96749.81
2023-03-15T19:06:20.462Z,96756.00
2023-03-15T19:08:53.148Z,96756.00
2023-03-15T19:11:21.208Z,96763.19
2023-03-15T19:13:50.991Z,96763.03
2023-03-15T19:16:22.106Z,96770.69
2023-03-15T19:18:51.631Z,96766.25
2023-03-15T19:21:20.115Z,96772.00
2023-03-15T19:23:47.498Z,96769.69
2023-03-15T19:26:14.457Z,96760.69
2023-03-15T19:28:41.494Z,96773.91
2023-03-15T19:31:09.138Z,96765.09
2023-03-15T19:33:36.187Z,96769.84
2023-03-15T19:36:04.013Z,96777.19
2023-03-15T19:38:31.226Z,96776.22
2023-03-15T19:41:06.477Z,96778.53
2023-03-15T19:43:33.335Z,96780.47
2023-03-15T19:46:01.478Z,96788.00
2023-03-15T19:48:28.423Z,96785.53
2023-03-15T19:50:55.224Z,96785.72
2023-03-15T19:53:22.104Z,96797.34
2023-03-15T19:55:48.980Z,96793.91
2023-03-15T19:58:15.867Z,96802.56
2023-03-15T20:00:42.773Z,96799.13
2023-03-15T20:03:09.917Z,96804.06
2023-03-15T20:05:38.077Z,96808.13
2023-03-15T20:08:05.254Z,96810.25
2023-03-15T20:10:32.236Z,96798.50
2023-03-15T20:12:59.405Z,96790.00
2023-03-15T20:15:28.243Z,96792.72
2023-03-15T20:17:56.255Z,96814.78
2023-03-15T20:20:23.426Z,96813.75
2023-03-15T20:22:50.575Z,96818.63
2023-03-15T20:25:20.729Z,96816.31
2023-03-15T20:27:48.582Z,96823.50
2023-03-15T20:30:17.694Z,96825.97
2023-03-15T20:32:45.010Z,96832.97
2023-03-15T20:35:12.573Z,96838.34
2023-03-15T20:37:41.445Z,96835.88
2023-03-15T20:40:12.936Z,96841.09
2023-03-15T20:42:40.360Z,96849.91
2023-03-15T20:45:09.568Z,96852.19
2023-03-15T20:47:37.878Z,96845.31
2023-03-15T20:50:07.343Z,96849.56
2023-03-15T20:52:34.326Z,96862.28
2023-03-15T20:55:01.582Z,96851.56
2023-03-15T20:57:28.480Z,96849.91
2023-03-15T20:59:55.376Z,96864.88
2023-03-15T21:02:22.463Z,96869.59
2023-03-15T21:04:49.417Z,96870.91
2023-03-15T21:07:16.354Z,96871.59
2023-03-15T21:09:43.276Z,96863.63
2023-03-15T21:12:10.093Z,96864.28
2023-03-15T21:14:37.000Z,96871.81
2023-03-15T21:17:03.845Z,96865.28
2023-03-15T21:19:31.708Z,96874.25
2023-03-15T21:22:00.280Z,96875.34
2023-03-15T21:24:31.118Z,96866.81
2023-03-15T21:26:58.271Z,96861.09
2023-03-15T21:29:25.463Z,96870.69
2023-03-15T21:31:52.414Z,96865.13
2023-03-15T21:34:19.238Z,96867.69
2023-03-15T21:36:46.110Z,96869.22
2023-03-15T21:39:12.994Z,96867.63
2023-03-15T21:41:39.779Z,96868.69
2023-03-15T21:44:06.674Z,96860.81
2023-03-15T21:46:33.826Z,96864.78
2023-03-15T21:49:01.738Z,96874.09
2023-03-15T21:51:29.477Z,96869.47
2023-03-15T21:53:56.412Z,96870.06
2023-03-15T21:56:26.137Z,96867.91
2023-03-15T21:58:54.698Z,96862.19
2023-03-15T22:01:22.662Z,96866.06
2023-03-15T22:03:53.108Z,96872.53
2023-03-15T22:06:21.699Z,96870.22
2023-03-15T22:08:50.052Z,96870.16
2023-03-15T22:11:17.032Z,96875.00
2023-03-15T22:13:43.999Z,96875.59
2023-03-15T22:16:12.282Z,96878.38
2023-03-15T22:18:39.402Z,96880.19
2023-03-15T22:21:06.926Z,96870.84
2023-03-15T22:23:33.807Z,96865.94
2023-03-15T22:26:00.609Z,96875.00
2023-03-15T22:28:27.488Z,96871.44
2023-03-15T22:30:54.507Z,96875.31
2023-03-15T22:33:22.335Z,96875.88
2023-03-15T22:35:59.011Z,96877.78
2023-03-15T22:38:26.882Z,96879.72
2023-03-15T22:41:08.536Z,96884.66
2023-03-15T22:43:37.092Z,96889.03
2023-03-15T22:46:04.292Z,96884.16
2023-03-15T22:48:31.376Z,96892.34
2023-03-15T22:51:09.596Z,96883.84
2023-03-15T22:53:36.470Z,96885.78
2023-03-15T22:56:04.075Z,96893.97
2023-03-15T22:58:31.140Z,96892.06
2023-03-15T23:00:58.324Z,96894.78
2023-03-15T23:03:26.308Z,96885.78
2023-03-15T23:05:54.785Z,96892.38
2023-03-15T23:08:22.830Z,96900.31
2023-03-15T23:10:49.793Z,96889.09
2023-03-15T23:13:16.698Z,96884.41
2023-03-15T23:15:43.845Z,96889.34
2023-03-15T23:18:10.820Z,96887.44
2023-03-15T23:20:37.609Z,96891.25
2023-03-15T23:23:04.424Z,96893.47
2023-03-15T23:25:31.428Z,96890.09
2023-03-15T23:27:58.279Z,96895.88
2023-03-15T23:30:25.519Z,96889.97
2023-03-15T23:32:57.420Z,96902.28
2023-03-15T23:35:24.744Z,96887.66
2023-03-15T23:37:52.986Z,96889.72
2023-03-15T23:40:21.181Z,96893.00
2023-03-15T23:42:52.355Z,96896.31
2023-03-15T23:45:19.359Z,96891.25
2023-03-15T23:47:46.204Z,96897.25
2023-03-15T23:50:13.567Z,96891.09
2023-03-15T23:52:41.170Z,96901.50
2023-03-15T23:55:08.764Z,96894.00
2023-03-15T23:57:35.567Z,96903.19
